createdAt,value
2022-08-07T00:01:43.713Z,99116.38
2022-08-07T00:04:09.571Z,99114.75
2022-08-07T00:06:38.714Z,99118.38
2022-08-07T00:09:21.219Z,99118.97
2022-08-07T00:11:55.839Z,99115.00
2022-08-07T00:14:31.474Z,99112.53
2022-08-07T00:17:02.486Z,99114.69
2022-08-07T00:20:00.557Z,99106.00
2022-08-07T00:22:34.611Z,99112.63
2022-08-07T00:25:07.322Z,99106.03
2022-08-07T00:27:52.457Z,99110.72
2022-08-07T00:30:26.318Z,99110.88
2022-08-07T00:32:54.693Z,99101.16
2022-08-07T00:35:23.003Z,99107.59
2022-08-07T00:37:50.038Z,99111.09
2022-08-07T00:40:39.320Z,99105.91
2022-08-07T00:43:09.884Z,99102.31
2022-08-07T00:45:40.470Z,99103.16
2022-08-07T00:48:10.890Z,99106.03
2022-08-07T00:50:46.316Z,99114.72
2022-08-07T00:53:21.224Z,99114.25
2022-08-07T00:56:02.528Z,99109.72
2022-08-07T00:58:31.417Z,99117.56
2022-08-07T01:00:58.907Z,99114.34
2022-08-07T01:03:55.484Z,99111.59
2022-08-07T01:06:15.737Z,99114.00
2022-08-07T01:08:51.437Z,99114.34
2022-08-07T01:12:09.620Z,99111.00
2022-08-07T01:14:08.985Z,99112.81
2022-08-07T01:16:36.593Z,99111.22
2022-08-07T01:19:04.753Z,99112.00
2022-08-07T01:21:46.702Z,99108.94
2022-08-07T01:24:13.992Z,99105.56
2022-08-07T01:26:40.835Z,99106.56
2022-08-07T01:29:08.697Z,99103.06
2022-08-07T01:31:42.322Z,99105.19
2022-08-07T01:34:14.167Z,99101.97
2022-08-07T01:36:40.968Z,99102.91
2022-08-07T01:39:11.002Z,99108.09
2022-08-07T01:41:40.738Z,99101.34
2022-08-07T01:44:21.808Z,99105.59
2022-08-07T01:46:50.427Z,99097.38
2022-08-07T01:49:18.058Z,99100.59
2022-08-07T01:52:01.885Z,99095.28
2022-08-07T01:54:37.082Z,99100.56
2022-08-07T01:57:24.272Z,99100.75
2022-08-07T02:00:13.196Z,99108.00
2022-08-07T02:03:18.795Z,99096.03
2022-08-07T02:05:55.326Z,99089.69
2022-08-07T02:08:27.902Z,99094.72
2022-08-07T02:10:59.279Z,99091.06
2022-08-07T02:13:56.334Z,99092.38
2022-08-07T02:16:28.405Z,99085.59
2022-08-07T02:19:00.963Z,99077.50
2022-08-07T02:21:55.990Z,99082.53
2022-08-07T02:24:21.463Z,99081.41
2022-08-07T02:26:50.027Z,99079.19
2022-08-07T02:29:21.809Z,99075.31
2022-08-07T02:31:49.761Z,99085.47
2022-08-07T02:34:18.164Z,99071.63
2022-08-07T02:36:45.996Z,99075.00
2022-08-07T02:39:17.286Z,99079.84
2022-08-07T02:42:02.632Z,99070.63
2022-08-07T02:44:34.829Z,99075.81
2022-08-07T02:47:05.635Z,99074.84
2022-08-07T02:49:56.486Z,99081.31
2022-08-07T02:52:31.194Z,99078.38
2022-08-07T02:55:03.629Z,99077.28
2022-08-07T02:57:34.874Z,99079.22
2022-08-07T03:00:05.004Z,99063.72
2022-08-07T03:02:37.512Z,99070.31
2022-08-07T03:05:23.142Z,99069.69
2022-08-07T03:08:07.019Z,99067.28
2022-08-07T03:10:41.062Z,99072.75
2022-08-07T03:13:15.121Z,99062.59
2022-08-07T03:15:55.694Z,99076.44
2022-08-07T03:18:24.457Z,99067.09
2022-08-07T03:21:03.667Z,99071.75
2022-08-07T03:23:33.653Z,99073.38
2022-08-07T03:26:03.368Z,99072.56
2022-08-07T03:28:37.500Z,99077.25
2022-08-07T03:31:24.607Z,99080.47
2022-08-07T03:33:59.340Z,99079.34
2022-08-07T03:36:28.877Z,99081.13
2022-08-07T03:39:05.304Z,99084.19
2022-08-07T03:41:41.692Z,99077.41
2022-08-07T03:44:09.351Z,99079.34
2022-08-07T03:46:37.519Z,99077.41
2022-08-07T03:49:24.218Z,99080.16
2022-08-07T03:52:01.831Z,99075.97
2022-08-07T03:54:35.289Z,99070.16
2022-08-07T03:57:09.749Z,99067.28
2022-08-07T04:00:01.719Z,99067.94
2022-08-07T04:02:30.989Z,99066.59
2022-08-07T04:04:58.439Z,99071.47
2022-08-07T04:07:25.675Z,99076.13
2022-08-07T04:10:03.675Z,99076.47
2022-08-07T04:12:33.003Z,99076.47
2022-08-07T04:15:02.344Z,99076.94
2022-08-07T04:18:57.024Z,99080.81
2022-08-07T04:20:19.538Z,99080.81
2022-08-07T04:22:53.355Z,99079.22
2022-08-07T04:25:29.300Z,99084.50
2022-08-07T04:28:00.280Z,99089.34
2022-08-07T04:30:43.337Z,99092.56
2022-08-07T04:33:15.846Z,99095.78
2022-08-07T04:35:50.512Z,99099.84
2022-08-07T04:38:19.133Z,99100.63
2022-08-07T04:40:52.763Z,99099.50
2022-08-07T04:44:12.607Z,99101.59
2022-08-07T04:46:25.957Z,99110.13
2022-08-07T04:49:24.566Z,99100.47
2022-08-07T04:52:14.991Z,99104.50
2022-08-07T04:55:14.950Z,99105.47
2022-08-07T04:58:33.757Z,99112.53
2022-08-07T05:01:13.581Z,99108.66
2022-08-07T05:04:07.556Z,99108.81
2022-08-07T05:06:51.769Z,99116.09
2022-08-07T05:09:45.646Z,99109.94
2022-08-07T05:12:27.353Z,99117.53
2022-08-07T05:15:21.580Z,99125.41
2022-08-07T05:17:57.284Z,99118.44
2022-08-07T05:20:34.107Z,99123.22
2022-08-07T05:23:15.756Z,99118.34
2022-08-07T05:26:13.420Z,99121.78
2022-08-07T05:28:35.076Z,99123.69
2022-08-07T05:31:03.691Z,99128.63
2022-08-07T05:33:35.577Z,99121.56
2022-08-07T05:36:06.931Z,99129.78
2022-08-07T05:39:01.013Z,99134.31
2022-08-07T05:41:29.017Z,99129.78
2022-08-07T05:44:15.550Z,99137.31
2022-08-07T05:46:56.578Z,99128.56
2022-08-07T05:49:23.704Z,99130.41
2022-08-07T05:51:50.254Z,99129.97
2022-08-07T05:54:30.927Z,99135.91
2022-08-07T05:57:04.953Z,99127.84
2022-08-07T05:59:46.579Z,99139.66
2022-08-07T06:02:29.109Z,99131.19
2022-08-07T06:05:03.624Z,99132.19
2022-08-07T06:08:29.445Z,99130.41
2022-08-07T06:10:18.575Z,99136.19
2022-08-07T06:12:46.094Z,99139.19
2022-08-07T06:15:16.078Z,99139.81
2022-08-07T06:17:53.458Z,99139.00
2022-08-07T06:20:31.671Z,99136.13
2022-08-07T06:23:46.174Z,99137.41
2022-08-07T06:25:58.565Z,99131.00
2022-08-07T06:28:27.353Z,99133.06
2022-08-07T06:30:56.100Z,99132.88
2022-08-07T06:33:24.297Z,99130.78
2022-08-07T06:36:12.478Z,99128.38
2022-08-07T06:38:38.166Z,99121.03
2022-08-07T06:41:12.848Z,99125.50
2022-08-07T06:43:46.174Z,99128.72
2022-08-07T06:46:15.416Z,99127.47
2022-08-07T06:48:58.334Z,99122.59
2022-08-07T06:51:33.336Z,99118.72
2022-08-07T06:55:29.550Z,99116.41
2022-08-07T06:56:51.239Z,99123.06
2022-08-07T07:00:14.421Z,99117.53
2022-08-07T07:02:13.197Z,99123.75
2022-08-07T07:04:59.674Z,99113.81
2022-08-07T07:07:59.840Z,99115.41
2022-08-07T07:10:14.988Z,99124.56
2022-08-07T07:12:53.840Z,99114.56
2022-08-07T07:15:35.767Z,99119.69
2022-08-07T07:18:05.529Z,99123.31
2022-08-07T07:20:36.968Z,99127.47
2022-08-07T07:24:08.377Z,99125.31
2022-08-07T07:26:33.530Z,99125.53
2022-08-07T07:29:55.964Z,99124.34
2022-08-07T07:32:03.143Z,99123.94
2022-08-07T07:34:32.108Z,99125.56
2022-08-07T07:37:14.461Z,99115.75
2022-08-07T07:39:54.766Z,99116.03
2022-08-07T07:42:25.747Z,99110.03
2022-08-07T07:45:02.315Z,99107.53
2022-08-07T07:47:30.181Z,99105.13
2022-08-07T07:50:35.521Z,99101.41
2022-08-07T07:53:00.928Z,99094.19
2022-08-07T07:55:37.531Z,99099.34
2022-08-07T07:58:14.205Z,99083.94
2022-08-07T08:00:53.563Z,99094.16
2022-08-07T08:04:06.107Z,99089.47
2022-08-07T08:06:11.586Z,99089.88
2022-08-07T08:08:42.053Z,99077.16
2022-08-07T08:11:16.383Z,99083.56
2022-08-07T08:13:53.144Z,99079.28
2022-08-07T08:16:26.340Z,99086.25
2022-08-07T08:18:58.209Z,99078.19
2022-08-07T08:22:00.588Z,99091.94
2022-08-07T08:25:04.456Z,99080.38
2022-08-07T08:27:55.877Z,99079.56
2022-08-07T08:30:24.399Z,99077.06
2022-08-07T08:32:54.233Z,99079.16
2022-08-07T08:35:28.648Z,99078.53
2022-08-07T08:38:03.796Z,99082.72
2022-08-07T08:40:40.928Z,99080.44
2022-08-07T08:43:58.659Z,99069.47
2022-08-07T08:46:32.735Z,99070.59
2022-08-07T08:49:10.213Z,99057.44
2022-08-07T08:52:14.128Z,99065.47
2022-08-07T08:55:10.194Z,99062.09
2022-08-07T08:57:52.901Z,99072.19
2022-08-07T09:00:21.472Z,99065.13
2022-08-07T09:03:13.523Z,99057.28
2022-08-07T09:05:43.539Z,99062.06
2022-08-07T09:08:29.082Z,99057.91
2022-08-07T09:11:24.643Z,99054.41
2022-08-07T09:14:15.402Z,99053.41
2022-08-07T09:16:54.533Z,99056.66
2022-08-07T09:19:53.118Z,99066.78
2022-08-07T09:24:32.666Z,99065.13
2022-08-07T09:26:10.750Z,99064.91
2022-08-07T09:30:04.032Z,99054.50
2022-08-07T09:31:49.220Z,99063.41
2022-08-07T09:34:38.067Z,99054.66
2022-08-07T09:37:14.851Z,99057.09
2022-08-07T09:40:04.103Z,99052.78
2022-08-07T09:44:03.185Z,99056.41
2022-08-07T09:47:27.625Z,99056.56
2022-08-07T09:50:01.910Z,99051.47
2022-08-07T09:52:34.311Z,99041.59
2022-08-07T09:55:01.523Z,99048.38
2022-08-07T09:57:53.867Z,99047.16
2022-08-07T10:00:29.939Z,99031.31
2022-08-07T10:03:08.370Z,99036.13
2022-08-07T10:06:24.441Z,99034.53
2022-08-07T10:09:15.769Z,99026.72
2022-08-07T10:12:11.819Z,99023.53
2022-08-07T10:15:05.324Z,99022.00
2022-08-07T10:18:00.274Z,99023.19
2022-08-07T10:20:35.355Z,99016.06
2022-08-07T10:24:04.933Z,99018.09
2022-08-07T10:27:06.675Z,99005.41
2022-08-07T10:30:12.430Z,98971.66
2022-08-07T10:33:08.410Z,99008.69
2022-08-07T10:36:11.390Z,98996.72
2022-08-07T10:38:52.258Z,98995.13
2022-08-07T10:41:52.248Z,98990.00
2022-08-07T10:44:45.655Z,98984.03
2022-08-07T10:47:27.043Z,98990.44
2022-08-07T10:50:19.082Z,98974.50
2022-08-07T10:53:11.370Z,98964.19
2022-08-07T10:55:57.273Z,98970.16
2022-08-07T10:59:01.287Z,98969.78
2022-08-07T11:01:35.734Z,98963.44
2022-08-07T11:04:31.959Z,98964.22
2022-08-07T11:07:14.971Z,98955.47
2022-08-07T11:10:09.593Z,98959.84
2022-08-07T11:12:49.072Z,98953.09
2022-08-07T11:15:26.322Z,98951.91
2022-08-07T11:18:29.434Z,98941.94
2022-08-07T11:21:06.472Z,98939.56
2022-08-07T11:23:45.426Z,98934.00
2022-08-07T11:26:48.086Z,98931.22
2022-08-07T11:29:43.047Z,98934.78
2022-08-07T11:32:34.398Z,98930.44
2022-08-07T11:35:11.977Z,98932.00
2022-08-07T11:37:58.057Z,98925.19
2022-08-07T11:40:58.149Z,98919.19
2022-08-07T11:44:10.858Z,98923.19
2022-08-07T11:46:49.105Z,98923.59
2022-08-07T11:50:18.611Z,98917.22
2022-08-07T11:52:51.924Z,98916.44
2022-08-07T11:56:13.953Z,98911.66
2022-08-07T11:59:03.571Z,98919.25
2022-08-07T12:01:59.851Z,98909.25
2022-08-07T12:04:40.226Z,98912.03
2022-08-07T12:07:27.878Z,98914.34
2022-08-07T12:10:17.194Z,98911.56
2022-08-07T12:12:55.175Z,98908.41
2022-08-07T12:15:46.264Z,98911.56
2022-08-07T12:18:29.909Z,98907.16
2022-08-07T12:21:03.540Z,98897.56
2022-08-07T12:24:06.983Z,98890.81
2022-08-07T12:26:49.374Z,98892.31
2022-08-07T12:29:38.420Z,98889.88
2022-08-07T12:32:19.796Z,98889.91
2022-08-07T12:34:55.864Z,98884.34
2022-08-07T12:37:28.448Z,98887.13
2022-08-07T12:40:43.693Z,98880.31
2022-08-07T12:43:09.337Z,98882.69
2022-08-07T12:45:57.799Z,98881.06
2022-08-07T12:48:41.444Z,98879.47
2022-08-07T12:51:24.336Z,98881.91
2022-08-07T12:54:36.459Z,98865.06
2022-08-07T12:57:09.547Z,98866.22
2022-08-07T12:59:54.366Z,98868.97
2022-08-07T13:02:33.069Z,98866.53
2022-08-07T13:06:03.332Z,98870.00
2022-08-07T13:08:38.652Z,98857.94
2022-08-07T13:11:31.329Z,98859.44
2022-08-07T13:14:29.224Z,98855.81
2022-08-07T13:17:39.767Z,98854.53
2022-08-07T13:20:33.937Z,98847.22
2022-08-07T13:24:01.057Z,98847.22
2022-08-07T13:26:18.263Z,98850.34
2022-08-07T13:28:58.327Z,98838.00
2022-08-07T13:31:57.657Z,98834.31
2022-08-07T13:34:35.835Z,98833.69
2022-08-07T13:37:40.726Z,98830.34
2022-08-07T13:40:33.990Z,98825.88
2022-08-07T13:43:13.381Z,98831.72
2022-08-07T13:46:12.346Z,98821.53
2022-08-07T13:48:38.394Z,98821.59
2022-08-07T13:51:27.248Z,98824.75
2022-08-07T13:54:01.517Z,98815.88
2022-08-07T13:56:35.517Z,98814.13
2022-08-07T13:59:17.860Z,98810.78
2022-08-07T14:02:04.324Z,98805.09
2022-08-07T14:04:35.825Z,98805.72
2022-08-07T14:07:09.463Z,98803.06
2022-08-07T14:10:00.890Z,98798.25
2022-08-07T14:12:54.898Z,98791.63
2022-08-07T14:15:35.090Z,98794.44
2022-08-07T14:18:27.734Z,98797.59
2022-08-07T14:22:01.366Z,98790.75
2022-08-07T14:24:05.239Z,98787.38
2022-08-07T14:26:50.287Z,98776.88
2022-08-07T14:30:08.082Z,98782.13
2022-08-07T14:32:12.334Z,98778.69
2022-08-07T14:34:46.403Z,98770.66
2022-08-07T14:37:17.451Z,98773.13
2022-08-07T14:40:16.211Z,98773.34
2022-08-07T14:42:35.704Z,98768.53
2022-08-07T14:45:25.471Z,98773.06
2022-08-07T14:48:19.782Z,98770.53
2022-08-07T14:51:00.166Z,98758.38
2022-08-07T14:54:09.847Z,98759.78
2022-08-07T14:59:13.727Z,98759.88
2022-08-07T15:02:33.062Z,98767.00
2022-08-07T15:05:02.180Z,98758.03
2022-08-07T15:07:47.359Z,98755.97
2022-08-07T15:10:19.652Z,98768.50
2022-08-07T15:12:54.913Z,98756.63
2022-08-07T15:15:40.600Z,98757.53
2022-08-07T15:18:33.618Z,98761.75
2022-08-07T15:26:49.522Z,98743.75
2022-08-07T15:30:09.323Z,98741.72
2022-08-07T15:32:11.750Z,98744.56
2022-08-07T15:38:17.620Z,98743.53
2022-08-07T15:40:34.316Z,98749.47
2022-08-07T15:43:53.687Z,98741.44
2022-08-07T15:46:32.251Z,98733.53
2022-08-07T15:49:12.781Z,98742.34
2022-08-07T15:54:39.255Z,98736.69
2022-08-07T15:57:10.808Z,98730.72
2022-08-07T15:59:56.644Z,98730.34
2022-08-07T16:02:29.285Z,98727.06
2022-08-07T16:05:15.669Z,98723.44
2022-08-07T16:08:30.479Z,98732.97
2022-08-07T16:10:36.692Z,98735.06
2022-08-07T16:13:57.645Z,98726.75
2022-08-07T16:16:49.720Z,98727.09
2022-08-07T16:19:58.851Z,98728.00
2022-08-07T16:22:58.113Z,98729.72
2022-08-07T16:26:05.086Z,98723.03
2022-08-07T16:30:05.456Z,98720.28
2022-08-07T16:31:57.819Z,98724.31
2022-08-07T16:34:49.675Z,98713.22
2022-08-07T16:38:09.197Z,98714.81
2022-08-07T16:41:02.246Z,98719.22
2022-08-07T16:44:03.760Z,98717.66
2022-08-07T16:47:06.008Z,98726.81
2022-08-07T16:50:28.789Z,98720.84
2022-08-07T16:52:52.067Z,98730.84
2022-08-07T16:55:47.297Z,98722.50
2022-08-07T16:59:02.213Z,98721.38
2022-08-07T17:01:22.807Z,98737.28
2022-08-07T17:04:25.070Z,98726.59
2022-08-07T17:07:03.305Z,98725.78
2022-08-07T17:10:06.939Z,98727.00
2022-08-07T17:12:53.257Z,98731.00
2022-08-07T17:15:44.260Z,98725.81
2022-08-07T17:18:37.738Z,98730.22
2022-08-07T17:21:19.023Z,98734.97
2022-08-07T17:23:54.113Z,98729.03
2022-08-07T17:26:55.333Z,98736.19
2022-08-07T17:30:16.160Z,98744.16
2022-08-07T17:32:51.983Z,98739.81
2022-08-07T17:35:50.914Z,98747.78
2022-08-07T17:38:39.614Z,98750.16
2022-08-07T17:42:04.843Z,98739.03
2022-08-07T17:44:34.047Z,98749.38
2022-08-07T17:47:16.956Z,98753.34
2022-08-07T17:50:01.778Z,98752.09
2022-08-07T17:52:44.649Z,98749.47
2022-08-07T17:56:00.440Z,98751.63
2022-08-07T17:58:30.133Z,98755.13
2022-08-07T18:00:59.526Z,98756.13
2022-08-07T18:04:04.110Z,98749.88
2022-08-07T18:06:37.237Z,98753.91
2022-08-07T18:09:08.711Z,98757.75
2022-08-07T18:12:16.166Z,98752.97
2022-08-07T18:14:44.966Z,98758.84
2022-08-07T18:18:46.768Z,98759.69
2022-08-07T18:21:11.032Z,98767.66
2022-08-07T18:23:50.742Z,98762.06
2022-08-07T18:26:45.840Z,98761.25
2022-08-07T18:30:04.256Z,98769.97
2022-08-07T18:33:00.253Z,98773.09
2022-08-07T18:36:00.948Z,98778.59
2022-08-07T18:38:56.754Z,98775.41
2022-08-07T18:41:44.697Z,98792.44
2022-08-07T18:45:40.338Z,98790.00
2022-08-07T18:48:05.423Z,98794.38
2022-08-07T18:50:47.577Z,98805.44
2022-08-07T18:53:57.372Z,98808.16
2022-08-07T18:56:39.696Z,98814.09
2022-08-07T18:59:47.309Z,98815.56
2022-08-07T19:02:52.499Z,98827.44
2022-08-07T19:06:02.634Z,98822.63
2022-08-07T19:08:28.936Z,98824.56
2022-08-07T19:11:36.731Z,98826.09
2022-08-07T19:14:24.027Z,98832.03
2022-08-07T19:17:07.939Z,98828.75
2022-08-07T19:20:29.209Z,98848.13
2022-08-07T19:23:18.390Z,98855.25
2022-08-07T19:26:22.770Z,98853.59
2022-08-07T19:30:53.876Z,98845.19
2022-08-07T19:31:59.882Z,98847.91
2022-08-07T19:34:32.433Z,98860.91
2022-08-07T19:37:10.336Z,98864.81
2022-08-07T19:39:57.976Z,98866.38
2022-08-07T19:42:30.839Z,98868.69
2022-08-07T19:45:09.551Z,98867.88
2022-08-07T19:47:42.190Z,98863.84
2022-08-07T19:50:41.417Z,98865.75
2022-08-07T19:52:59.120Z,98857.34
2022-08-07T19:55:58.083Z,98857.28
2022-08-07T19:58:18.505Z,98860.38
2022-08-07T20:00:56.839Z,98853.56
2022-08-07T20:03:34.646Z,98857.44
2022-08-07T20:06:05.101Z,98860.13
2022-08-07T20:08:35.903Z,98864.00
2022-08-07T20:11:15.010Z,98856.38
2022-08-07T20:13:56.450Z,98855.09
2022-08-07T20:16:35.890Z,98860.53
2022-08-07T20:19:10.405Z,98853.63
2022-08-07T20:21:42.092Z,98861.84
2022-08-07T20:24:19.438Z,98856.09
2022-08-07T20:26:54.607Z,98857.53
2022-08-07T20:29:47.659Z,98859.06
2022-08-07T20:32:22.942Z,98864.25
2022-08-07T20:34:57.540Z,98852.34
2022-08-07T20:37:29.547Z,98855.06
2022-08-07T20:40:05.083Z,98852.22
2022-08-07T20:42:56.091Z,98852.50
2022-08-07T20:45:33.721Z,98849.56
2022-08-07T20:48:28.860Z,98851.78
2022-08-07T20:51:01.609Z,98847.38
2022-08-07T20:54:03.165Z,98855.16
2022-08-07T20:56:25.959Z,98847.59
2022-08-07T20:58:55.922Z,98851.91
2022-08-07T21:01:45.919Z,98855.34
2022-08-07T21:04:22.799Z,98847.63
2022-08-07T21:06:53.555Z,98856.59
2022-08-07T21:09:27.978Z,98850.19
2022-08-07T21:11:57.640Z,98855.72
2022-08-07T21:14:34.237Z,98860.81
2022-08-07T21:18:00.939Z,98856.75
2022-08-07T21:20:05.129Z,98852.25
2022-08-07T21:22:45.177Z,98854.00
2022-08-07T21:25:29.158Z,98856.66
2022-08-07T21:28:02.612Z,98851.50
2022-08-07T21:30:39.237Z,98859.44
2022-08-07T21:33:11.535Z,98853.84
2022-08-07T21:36:05.023Z,98854.28
2022-08-07T21:39:46.278Z,98852.75
2022-08-07T21:42:42.555Z,98847.94
2022-08-07T21:46:05.437Z,98853.75
2022-08-07T21:48:41.442Z,98859.59
2022-08-07T21:51:32.909Z,98859.88
2022-08-07T21:54:49.655Z,98860.53
2022-08-07T21:57:31.514Z,98873.44
2022-08-07T22:00:22.750Z,98875.34
2022-08-07T22:03:09.484Z,98879.16
2022-08-07T22:06:06.287Z,98879.78
2022-08-07T22:09:06.894Z,98881.22
2022-08-07T22:11:52.900Z,98879.22
2022-08-07T22:14:36.263Z,98877.44
2022-08-07T22:17:05.948Z,98874.53
2022-08-07T22:19:57.289Z,98881.91
2022-08-07T22:22:30.078Z,98884.66
2022-08-07T22:25:10.961Z,98875.97
2022-08-07T22:28:07.329Z,98873.47
2022-08-07T22:30:53.224Z,98880.41
2022-08-07T22:33:52.829Z,98879.97
2022-08-07T22:36:29.473Z,98871.53
2022-08-07T22:39:04.533Z,98871.84
2022-08-07T22:42:04.141Z,98888.41
2022-08-07T22:44:32.798Z,98892.69
2022-08-07T22:47:16.945Z,98890.19
2022-08-07T22:50:08.482Z,98882.91
2022-08-07T22:52:56.249Z,98896.25
2022-08-07T22:55:57.030Z,98886.63
2022-08-07T22:58:24.880Z,98887.41
2022-08-07T23:01:09.301Z,98893.06
2022-08-07T23:04:03.663Z,98888.94
2022-08-07T23:06:56.917Z,98885.28
2022-08-07T23:10:06.107Z,98882.25
2022-08-07T23:12:34.071Z,98881.78
2022-08-07T23:15:07.149Z,98883.63
2022-08-07T23:18:09.266Z,98883.63
2022-08-07T23:21:03.003Z,98877.47
2022-08-07T23:24:05.233Z,98877.09
2022-08-07T23:26:57.679Z,98891.47
2022-08-07T23:30:36.346Z,98883.28
2022-08-07T23:34:34.748Z,98894.41
2022-08-07T23:36:17.253Z,98885.16
2022-08-07T23:38:55.599Z,98881.97
2022-08-07T23:42:04.894Z,98888.59
2022-08-07T23:45:33.207Z,98876.88
2022-08-07T23:48:22.015Z,98876.09
2022-08-07T23:51:00.808Z,98876.88
2022-08-07T23:53:51.632Z,98873.69
2022-08-07T23:56:56.539Z,98880.84
